Time;durP1;ratioP1;P1;durP2;ratioP2;P2;SDS_P1;SDS_P2;PMS_P1;PMS_P2;Temp;Humidity;BMP_temperature;BMP_pressure;BME280_temperature;BME280_humidity;BME280_pressure;Samples;Min_cycle;Max_cycle;Signal;HPM_P1;HPM_P2
2022/12/11 00:02:10;;;;;;;20.00;6.82;;;;;;;16.34;68.63;99488.16;5076821;28;19916;-87
2022/12/11 00:04:38;;;;;;;16.55;7.03;;;;;;;16.20;68.55;99468.50;5079105;28;20067;-87
2022/12/11 00:07:04;;;;;;;20.15;7.43;;;;;;;16.31;69.68;99470.47;5060616;28;20071;-84
2022/12/11 00:09:29;;;;;;;;;;;;;;;16.33;69.84;99486.53;5080258;28;20032;-88
2022/12/11 00:11:57;;;;;;;22.75;7.18;;;;;;;16.14;69.81;99462.13;5057088;28;19923;-88
2022/12/11 00:14:27;;;;;;;26.50;6.80;;;;;;;16.43;69.58;99459.69;5046643;28;20044;-88
2022/12/11 00:20:24;;;;;;;23.63;6.93;;;;;;;16.31;70.80;99442.53;5030596;28;20064;-89
2022/12/11 00:26:54;;;;;;;23.58;6.93;;;;;;;16.46;72.11;99472.81;5027896;28;20057;-88
2022/12/11 00:29:35;;;;;;;15.77;6.60;;;;;;;16.43;71.80;99478.66;5027672;28;20405;-87
2022/12/11 00:32:09;;;;;;;17.67;7.47;;;;;;;16.08;71.69;99449.47;5024866;28;20306;-89
2022/12/11 00:35:02;;;;;;;23.02;7.50;;;;;;;15.79;72.85;99457.28;5037950;28;20038;-88
2022/12/11 00:37:31;;;;;;;23.02;8.70;;;;;;;15.62;72.86;99456.19;5040168;28;20045;-89
2022/12/11 00:39:58;;;;;;;23.38;7.00;;;;;;;15.49;73.00;99454.41;5016960;28;20037;-90
2022/12/11 00:42:28;;;;;;;24.67;7.43;;;;;;;15.26;74.12;99443.38;5015668;28;20094;-88
2022/12/11 00:45:42;;;;;;;21.88;7.90;;;;;;;15.17;75.23;99442.81;5002839;28;20042;-89
2022/12/11 00:48:16;;;;;;;22.17;7.95;;;;;;;14.92;75.21;99430.09;5051766;28;20048;-87
2022/12/11 00:50:46;;;;;;;21.23;8.82;;;;;;;14.70;76.34;99431.50;5040607;28;20064;-89
2022/12/11 00:53:16;;;;;;;20.83;9.05;;;;;;;14.63;76.84;99419.88;5052482;28;20043;-88
2022/12/11 00:55:57;;;;;;;25.83;10.00;;;;;;;14.33;78.31;99418.56;5061939;28;20056;-86
2022/12/11 00:59:24;;;;;;;24.05;9.75;;;;;;;14.35;78.27;99423.75;5063263;28;20051;-90
2022/12/11 01:02:01;;;;;;;26.40;10.10;;;;;;;14.13;78.95;99410.53;5095145;28;20038;-90
2022/12/11 01:04:30;;;;;;;26.45;10.20;;;;;;;14.03;79.43;99399.38;5053158;28;20036;-90
2022/12/11 01:07:23;;;;;;;21.30;9.45;;;;;;;14.00;79.68;99417.88;5057963;28;20040;-89
2022/12/11 01:12:37;;;;;;;20.60;9.45;;;;;;;13.99;80.61;99419.75;5076434;28;20047;-88
2022/12/11 01:15:07;;;;;;;19.73;10.18;;;;;;;13.95;80.94;99407.72;5074412;28;20075;-88
2022/12/11 01:17:33;;;;;;;23.25;9.93;;;;;;;13.98;81.07;99401.91;5057490;28;20045;-89
2022/12/11 01:20:10;;;;;;;22.33;10.75;;;;;;;13.87;81.70;99399.84;5043952;28;20055;-87
2022/12/11 01:22:58;;;;;;;22.80;10.88;;;;;;;13.72;81.88;99397.41;5074814;28;20037;-88
2022/12/11 01:26:02;;;;;;;22.38;10.60;;;;;;;13.76;82.06;99395.09;5071565;28;20039;-87
2022/12/11 01:28:55;;;;;;;20.77;10.43;;;;;;;13.64;82.62;99395.75;5089741;28;20431;-89
2022/12/11 01:31:51;;;;;;;24.13;10.52;;;;;;;13.80;82.26;99407.97;5069910;28;20040;-89
2022/12/11 01:35:08;;;;;;;21.73;11.35;;;;;;;13.88;82.26;99404.19;5088216;28;20248;-88
2022/12/11 01:37:35;;;;;;;24.63;10.32;;;;;;;13.94;81.82;99397.94;5086459;28;20076;-88
2022/12/11 01:40:07;;;;;;;21.33;10.38;;;;;;;13.99;81.59;99392.72;5060835;28;20036;-91
2022/12/11 01:42:33;;;;;;;21.73;9.93;;;;;;;14.08;81.07;99401.44;5070330;28;20039;-88
2022/12/11 01:45:40;;;;;;;25.15;9.80;;;;;;;14.07;80.86;99410.56;5057583;28;20044;-91
2022/12/11 01:48:39;;;;;;;26.90;9.98;;;;;;;14.00;80.12;99367.38;5092548;28;20074;-88
2022/12/11 01:51:16;;;;;;;18.83;9.68;;;;;;;14.13;80.21;99388.94;5059400;28;20051;-88
2022/12/11 05:42:41;;;;;;;18.40;8.35;;;;;;;16.14;69.61;99062.75;5048666;28;20072;-89
2022/12/11 06:03:20;;;;;;;19.17;7.40;;;;;;;16.72;66.77;99123.44;5047059;28;20129;-87
2022/12/11 06:05:49;;;;;;;25.58;8.35;;;;;;;16.74;66.78;99115.88;5030309;28;20041;-87
2022/12/11 06:08:18;;;;;;;18.02;7.20;;;;;;;16.72;66.76;99112.59;5014293;28;20042;-92
2022/12/11 06:11:12;;;;;;;22.33;7.88;;;;;;;16.81;66.56;99128.28;5046180;28;20068;-90
2022/12/11 06:13:53;;;;;;;20.92;8.00;;;;;;;16.79;66.49;99113.31;5043883;28;20071;-86
2022/12/11 06:16:27;;;;;;;25.13;8.32;;;;;;;16.73;66.58;99096.06;5057892;28;20056;-89
2022/12/11 06:18:58;;;;;;;25.88;9.27;;;;;;;16.78;66.21;99089.91;5037224;28;20102;-86
2022/12/11 06:21:28;;;;;;;20.80;7.95;;;;;;;16.92;66.52;99113.03;5007282;28;20123;-86
2022/12/11 06:23:56;;;;;;;21.38;7.53;;;;;;;16.90;66.22;99126.00;5002156;28;20379;-88
2022/12/11 06:26:27;;;;;;;26.92;7.78;;;;;;;16.99;66.55;99119.16;5023589;28;20389;-88
2022/12/11 06:29:03;;;;;;;23.20;7.93;;;;;;;16.74;66.62;99086.88;5029323;28;20057;-88
2022/12/11 06:31:31;;;;;;;21.85;7.78;;;;;;;16.88;66.74;99111.88;5043422;28;20041;-86
2022/12/11 07:03:12;;;;;;;21.08;6.32;;;;;;;17.30;65.34;99108.88;4880153;28;20045;-88
2022/12/11 07:05:40;;;;;;;23.75;6.75;;;;;;;17.58;65.36;99145.25;5054574;28;20025;-90
2022/12/11 07:08:06;;;;;;;18.33;6.82;;;;;;;17.35;65.26;99103.56;5037097;28;20074;-88
2022/12/11 07:10:32;;;;;;;;;;;;;;;17.67;64.75;99139.19;5046422;28;20042;-91
2022/12/11 07:12:58;;;;;;;19.98;5.93;;;;;;;17.46;65.01;99113.53;5054324;28;19924;-89
2022/12/11 07:15:27;;;;;;;20.35;6.43;;;;;;;17.56;64.97;99133.81;5035337;28;20115;-88
2022/12/11 07:36:03;;;;;;;20.77;6.45;;;;;;;17.45;68.69;99136.34;1431867;26;20182;-86
2022/12/11 07:38:31;;;;;;;18.20;5.95;;;;;;;17.34;68.57;99137.22;5046123;28;20073;-86
2022/12/11 07:41:10;;;;;;;19.40;6.03;;;;;;;17.29;69.19;99129.78;5088004;28;20036;-88
2022/12/11 07:43:39;;;;;;;21.88;5.90;;;;;;;17.05;69.83;99117.38;5046192;28;20142;-87
2022/12/11 07:46:11;;;;;;;21.80;6.38;;;;;;;17.06;69.31;99122.53;5037939;28;20558;-90
2022/12/11 07:48:40;;;;;;;18.23;5.63;;;;;;;17.11;69.51;99121.00;5066400;28;20500;-85
2022/12/11 07:51:32;;;;;;;16.33;5.30;;;;;;;17.17;69.08;99117.34;5038296;28;20041;-86
2022/12/11 07:54:03;;;;;;;21.15;6.00;;;;;;;17.32;69.50;99133.91;5038525;28;20041;-86
2022/12/11 07:56:29;;;;;;;16.45;5.10;;;;;;;17.19;69.23;99117.94;5058940;28;20068;-86
2022/12/11 07:58:54;;;;;;;;;;;;;;;17.37;68.96;99141.34;5041922;28;20039;-86
2022/12/11 08:01:22;;;;;;;17.23;4.80;;;;;;;17.24;69.60;99123.44;5073313;28;20409;-87
2022/12/11 08:03:48;;;;;;;17.77;5.47;;;;;;;17.49;69.07;99145.66;5056923;28;20062;-86
2022/12/11 08:06:16;;;;;;;;;;;;;;;17.56;68.72;99139.25;5039294;28;20048;-86
2022/12/11 08:08:44;;;;;;;9.27;4.15;;;;;;;17.31;69.13;99110.56;5076649;28;19916;-88
2022/12/11 08:11:12;;;;;;;16.55;5.00;;;;;;;17.22;69.38;99117.44;5072933;28;20060;-87
2022/12/11 08:13:38;;;;;;;13.63;4.40;;;;;;;17.44;69.17;99148.28;5025922;28;20489;-89
2022/12/11 08:16:06;;;;;;;;;;;;;;;17.46;68.79;99146.13;5042923;28;20036;-86
2022/12/11 08:18:33;;;;;;;16.10;5.15;;;;;;;17.38;69.18;99143.81;5040814;28;19908;-86
2022/12/11 08:21:03;;;;;;;18.08;5.60;;;;;;;17.42;69.34;99144.16;5046503;28;20063;-85
2022/12/11 08:23:29;;;;;;;15.45;4.63;;;;;;;17.34;69.13;99133.69;5021192;28;20033;-85
2022/12/11 08:25:56;;;;;;;17.20;4.65;;;;;;;17.48;69.10;99133.13;5042341;28;20045;-86
2022/12/11 08:28:23;;;;;;;17.08;5.03;;;;;;;17.42;69.18;99122.41;5038196;28;20075;-86
2022/12/11 08:30:51;;;;;;;17.50;4.32;;;;;;;17.60;68.87;99118.69;5053639;28;20051;-85
2022/12/11 08:33:18;;;;;;;16.25;5.03;;;;;;;17.50;69.18;99114.69;5056539;28;20040;-86
2022/12/11 08:35:46;;;;;;;15.45;4.45;;;;;;;17.47;69.69;99089.94;5073601;28;20051;-85
2022/12/11 08:38:14;;;;;;;13.80;4.80;;;;;;;17.42;69.74;99071.66;5044588;28;20052;-87
2022/12/11 08:40:41;;;;;;;14.75;4.32;;;;;;;17.36;69.51;99059.03;5074084;28;20045;-86
2022/12/11 08:43:10;;;;;;;14.10;4.18;;;;;;;17.49;68.75;99064.16;5057919;28;20036;-86
2022/12/11 08:45:37;;;;;;;;;;;;;;;17.51;69.17;99043.00;5061046;28;20098;-86
2022/12/11 08:48:07;;;;;;;15.18;3.70;;;;;;;17.57;68.94;99029.50;5054779;28;19970;-89
2022/12/11 08:50:33;;;;;;;13.00;3.65;;;;;;;17.71;68.40;99045.22;5064280;28;20036;-88
2022/12/11 08:53:00;;;;;;;;;;;;;;;17.87;67.78;99057.22;5082209;28;20085;-88
2022/12/11 08:55:48;;;;;;;11.15;3.25;;;;;;;18.14;66.88;99070.13;5047829;28;19920;-88
2022/12/11 08:58:14;;;;;;;15.85;3.75;;;;;;;18.19;65.77;99062.06;5060630;28;20094;-87
2022/12/11 09:00:41;;;;;;;17.58;3.53;;;;;;;18.83;63.85;99060.75;5041787;28;20044;-86
2022/12/11 09:03:12;;;;;;;12.75;3.35;;;;;;;19.32;62.13;99075.19;5055060;28;20048;-90
2022/12/11 09:05:40;;;;;;;9.15;3.40;;;;;;;19.19;62.19;99061.97;5075014;28;20074;-88
2022/12/11 09:08:09;;;;;;;12.30;3.50;;;;;;;19.29;62.08;99083.88;5063761;28;20078;-88
2022/12/11 09:10:37;;;;;;;15.98;3.30;;;;;;;19.31;61.91;99068.06;5063081;28;20047;-88
2022/12/11 09:13:08;;;;;;;13.35;2.90;;;;;;;19.64;60.96;99059.94;5069463;28;20039;-85
2022/12/11 09:15:42;;;;;;;15.02;3.00;;;;;;;19.39;61.04;99010.41;5030337;28;20098;-88
2022/12/11 09:18:08;;;;;;;11.93;3.25;;;;;;;19.79;60.17;99065.56;5038931;28;20048;-87
2022/12/11 09:20:37;;;;;;;11.30;3.20;;;;;;;19.78;59.66;99029.31;5062345;28;20044;-88
2022/12/11 09:23:04;;;;;;;16.23;3.22;;;;;;;19.75;60.44;99072.59;5037291;28;20045;-88
2022/12/11 09:25:31;;;;;;;10.73;3.00;;;;;;;19.54;61.11;99060.66;5056277;28;20135;-90
2022/12/11 09:27:56;;;;;;;14.25;3.00;;;;;;;19.50;61.26;99068.56;5066144;28;20048;-87
2022/12/11 09:30:22;;;;;;;10.77;3.83;;;;;;;19.29;61.83;99067.53;5050219;28;20071;-87
2022/12/11 09:32:55;;;;;;;7.93;2.92;;;;;;;18.80;62.67;99034.00;5052888;28;20045;-86
2022/12/11 10:03:14;;;;;;;10.93;2.90;;;;;;;24.77;45.87;98995.81;5090355;28;20122;-88
2022/12/11 10:06:17;;;;;;;10.50;2.78;;;;;;;25.12;44.75;98990.09;5085956;28;20117;-87
2022/12/11 10:08:57;;;;;;;22.20;6.47;;;;;;;26.52;41.78;99008.31;5051200;28;20051;-86
2022/12/11 10:11:34;;;;;;;15.43;2.90;;;;;;;27.41;39.50;98992.38;5093228;28;20112;-88
2022/12/11 10:14:18;;;;;;;12.52;2.60;;;;;;;28.46;37.58;99012.31;5071389;28;20064;-86
2022/12/11 10:19:27;;;;;;;10.15;3.15;;;;;;;28.45;37.37;99030.00;3380202;26;20309;-82
2022/12/11 10:21:54;;;;;;;15.50;2.90;;;;;;;26.75;40.37;99025.00;5038634;28;20064;-84
2022/12/11 10:24:55;;;;;;;12.98;2.90;;;;;;;26.80;40.41;99026.81;5054150;28;20048;-84
2022/12/11 10:27:34;;;;;;;15.10;3.25;;;;;;;26.90;39.89;98996.28;5056430;28;20493;-86
2022/12/11 10:30:13;;;;;;;9.68;2.92;;;;;;;27.21;39.76;99007.47;5057680;28;20519;-85
2022/12/11 10:32:43;;;;;;;16.33;3.30;;;;;;;28.85;37.05;98996.84;5061163;28;20037;-86
2022/12/11 10:35:16;;;;;;;11.93;3.10;;;;;;;27.97;37.27;98960.59;5078486;28;20142;-84
2022/12/11 10:37:55;;;;;;;15.35;3.25;;;;;;;26.94;39.84;98989.00;5034793;28;20106;-86
2022/12/11 10:40:24;;;;;;;17.02;3.33;;;;;;;26.62;40.64;98993.56;5076124;28;20054;-88
2022/12/11 10:42:53;;;;;;;11.48;2.95;;;;;;;25.21;43.53;98985.59;5061672;28;20044;-89
2022/12/11 10:45:20;;;;;;;13.02;3.47;;;;;;;24.41;45.35;98993.47;5021880;28;20036;-87
2022/12/11 10:47:48;;;;;;;11.80;3.28;;;;;;;24.83;45.12;98988.31;5060591;28;20226;-87
2022/12/11 10:50:25;;;;;;;12.55;3.22;;;;;;;25.21;44.29;98983.66;5071498;28;20061;-88
2022/12/11 10:52:53;;;;;;;15.65;3.33;;;;;;;24.27;46.05;98981.53;5070763;28;20101;-86
2022/12/11 10:55:27;;;;;;;16.50;3.65;;;;;;;22.81;49.70;98994.22;5080381;28;20135;-85
2022/12/11 10:57:59;;;;;;;19.77;3.95;;;;;;;22.58;50.08;98979.28;5050373;28;20040;-87
2022/12/11 11:00:32;;;;;;;16.63;3.75;;;;;;;21.83;52.29;99008.19;5060444;28;20044;-88
2022/12/11 11:02:59;;;;;;;12.77;3.22;;;;;;;21.97;52.25;99026.78;5062313;28;20059;-87
2022/12/11 11:05:33;;;;;;;17.10;4.03;;;;;;;23.18;49.69;99007.47;5031343;28;20072;-86
2022/12/11 11:08:18;;;;;;;20.60;3.78;;;;;;;24.78;45.00;99002.13;5054790;28;20084;-87
2022/12/11 11:10:54;;;;;;;19.33;4.80;;;;;;;25.23;42.97;98999.84;5070642;28;20112;-87
2022/12/11 11:13:22;;;;;;;29.45;6.55;;;;;;;25.10;43.80;99019.81;5042345;28;20048;-87
2022/12/11 11:16:19;;;;;;;27.63;4.68;;;;;;;25.01;43.57;99014.19;5058149;28;20486;-85
2022/12/11 11:19:20;;;;;;;17.33;4.60;;;;;;;24.41;44.15;99018.19;5060784;28;20072;-87
2022/12/11 11:21:58;;;;;;;19.60;5.05;;;;;;;22.87;47.91;99010.34;5074059;28;20072;-87
2022/12/11 11:24:57;;;;;;;23.38;5.82;;;;;;;22.39;49.38;99015.50;5060876;28;20036;-88
2022/12/11 11:27:28;;;;;;;30.48;6.18;;;;;;;22.28;49.01;99002.94;5066590;28;20087;-89
2022/12/11 11:29:58;;;;;;;24.08;6.43;;;;;;;21.89;49.81;98989.84;5056919;28;20037;-86
2022/12/11 11:33:12;;;;;;;24.05;6.50;;;;;;;21.67;51.22;99010.09;5036426;28;20045;-87
2022/12/11 11:35:37;;;;;;;;;;;;;;;21.14;52.54;99017.69;5069129;28;20032;-88
2022/12/11 11:38:21;;;;;;;23.83;7.22;;;;;;;20.45;53.88;99011.41;5070832;28;19912;-88
2022/12/11 11:41:12;;;;;;;24.30;6.75;;;;;;;19.92;55.87;99023.38;5059477;28;20049;-88
2022/12/11 12:26:52;;;;;;;26.25;5.80;;;;;;;17.41;65.83;98985.78;5712576;22;20026;-90
2022/12/11 13:07:31;;;;;;;26.10;6.38;;;;;;;18.13;64.46;98986.91;5554079;22;20021;-91
2022/12/11 13:10:30;;;;;;;27.38;5.85;;;;;;;18.16;64.66;99005.41;5816791;22;20126;31
2022/12/11 13:12:58;;;;;;;21.73;5.53;;;;;;;18.01;64.58;98983.47;5304228;22;20126;-91
2022/12/11 13:15:55;;;;;;;27.13;6.20;;;;;;;18.09;64.87;99002.88;4998263;28;20034;-88
2022/12/11 13:21:30;;;;;;;20.02;5.50;;;;;;;18.08;65.11;98994.97;5411977;22;21039;-89
2022/12/11 13:32:24;;;;;;;25.10;6.85;;;;;;;17.56;67.41;99000.66;4997566;28;20046;-88
2022/12/11 13:40:13;;;;;;;33.88;8.65;;;;;;;17.33;67.39;98967.19;5069095;22;20045;-88
2022/12/11 13:58:18;;;;;;;31.70;6.50;;;;;;;17.31;67.88;99001.91;4172378;26;20112;-86
2022/12/11 14:01:28;;;;;;;29.20;6.13;;;;;;;17.28;68.23;99008.66;4947782;28;20063;-86
2022/12/11 14:04:29;;;;;;;25.38;6.53;;;;;;;17.20;68.50;99010.94;4986819;28;20104;-89
2022/12/11 14:07:21;;;;;;;29.45;7.57;;;;;;;17.21;68.42;99016.13;4988779;28;20043;-88
2022/12/11 14:10:45;;;;;;;30.48;6.45;;;;;;;17.06;68.77;99003.09;4995291;28;20082;-92
2022/12/11 14:16:20;;;;;;;29.02;6.50;;;;;;;16.91;69.38;98989.25;5134744;22;20118;-89
2022/12/11 14:19:37;;;;;;;29.30;5.57;;;;;;;16.73;69.61;98982.09;5033556;28;20037;-89
2022/12/11 14:22:34;;;;;;;30.20;7.28;;;;;;;16.58;70.38;99008.94;5036722;28;20032;-88
2022/12/11 14:25:37;;;;;;;29.83;6.53;;;;;;;16.64;70.90;99022.34;5046570;28;20131;-88
2022/12/11 14:28:22;;;;;;;30.90;7.10;;;;;;;16.52;71.26;99037.81;5018969;28;20049;-91
2022/12/11 14:30:53;;;;;;;;;;;;;;;16.20;72.32;99040.94;5011647;28;20034;-88
2022/12/11 16:25:03;;;;;;;24.15;4.22;;;;;;;16.03;69.72;99061.69;1841053;22;20512;-86
2022/12/11 16:30:30;;;;;;;21.58;4.03;;;;;;;15.84;70.01;99069.09;4975907;28;20430;-90
2022/12/11 16:33:16;;;;;;;22.52;4.72;;;;;;;15.88;69.88;99050.50;4948337;29;20059;-91
2022/12/11 16:36:20;;;;;;;22.95;4.05;;;;;;;15.92;69.62;99059.78;4922789;29;20036;-89
2022/12/11 16:39:11;;;;;;;27.88;6.78;;;;;;;15.87;69.75;99073.22;4941693;29;20019;-89
2022/12/11 16:41:41;;;;;;;17.20;3.85;;;;;;;15.81;69.67;99067.69;4922939;29;20070;-90
2022/12/11 16:44:28;;;;;;;19.17;4.28;;;;;;;15.79;69.70;99075.22;4936309;29;20067;-91
2022/12/11 16:47:15;;;;;;;17.52;3.42;;;;;;;15.71;69.96;99053.91;4930827;29;20067;-86
2022/12/11 16:49:43;;;;;;;16.63;3.92;;;;;;;15.71;69.79;99074.72;4947059;29;20058;-88
2022/12/11 16:52:16;;;;;;;17.75;5.78;;;;;;;15.76;69.77;99064.84;4935308;29;20039;-87
2022/12/11 16:55:21;;;;;;;14.00;2.70;;;;;;;15.42;70.33;99039.31;4876914;29;20043;-89
2022/12/11 16:58:57;;;;;;;11.30;2.67;;;;;;;15.52;70.33;99071.25;4947671;29;20055;-90
2022/12/11 17:01:43;;;;;;;11.25;2.15;;;;;;;15.44;70.24;99074.28;4952051;29;20043;-89
2022/12/11 17:04:10;;;;;;;15.70;2.97;;;;;;;15.46;70.40;99088.44;4934641;29;20063;-89
2022/12/11 17:06:35;;;;;;;;;;;;;;;15.52;70.10;99087.50;4910370;29;20052;-88
2022/12/11 17:09:17;;;;;;;14.15;2.85;;;;;;;15.46;70.29;99080.31;4944333;29;19914;-89
2022/12/11 17:11:49;;;;;;;14.63;2.83;;;;;;;15.39;70.23;99064.97;4933079;29;20055;-89
2022/12/11 17:14:19;;;;;;;11.77;2.47;;;;;;;15.49;69.57;99077.94;4922614;29;20128;-88
2022/12/11 17:17:06;;;;;;;9.20;2.25;;;;;;;15.27;69.80;99052.47;4935771;29;20058;-87
2022/12/11 17:20:22;;;;;;;13.88;2.80;;;;;;;15.40;70.16;99093.72;4921721;29;20162;-89
2022/12/11 17:23:08;;;;;;;11.02;2.30;;;;;;;15.25;70.66;99082.47;4951051;29;20052;-91
2022/12/11 17:25:48;;;;;;;17.17;3.78;;;;;;;15.34;70.17;99097.34;4922601;29;20102;-89
2022/12/11 17:28:20;;;;;;;18.60;2.72;;;;;;;15.17;70.62;99080.06;4940170;29;20141;-90
2022/12/11 17:30:48;;;;;;;11.95;2.33;;;;;;;15.34;70.18;99091.09;4937086;29;20056;-88
2022/12/11 17:33:32;;;;;;;12.48;2.45;;;;;;;15.30;69.80;99063.66;4931853;29;20036;-87
2022/12/11 17:36:08;;;;;;;22.23;3.57;;;;;;;15.33;70.19;99079.41;4942119;28;20483;-90
2022/12/11 17:38:43;;;;;;;21.23;6.95;;;;;;;15.32;69.91;99094.03;4977782;28;20042;-89
2022/12/11 17:41:14;;;;;;;22.17;4.18;;;;;;;15.20;70.21;99076.94;4958660;28;20038;-89
2022/12/11 17:43:49;;;;;;;17.25;4.22;;;;;;;15.20;70.28;99083.16;4976741;28;20046;-91
2022/12/11 17:46:18;;;;;;;19.02;4.07;;;;;;;15.06;70.31;99061.94;4967632;28;20061;-90
2022/12/11 17:49:17;;;;;;;16.33;3.70;;;;;;;15.34;70.44;99086.50;4945723;28;20133;-90
2022/12/11 17:51:45;;;;;;;14.43;3.00;;;;;;;15.30;70.17;99084.50;4969242;28;20050;-89
2022/12/11 17:54:13;;;;;;;13.50;2.38;;;;;;;15.25;70.31;99084.34;4960147;28;20038;-90
2022/12/11 17:57:11;;;;;;;18.80;2.90;;;;;;;15.18;70.29;99087.16;4960880;28;20050;-92
2022/12/11 18:00:27;;;;;;;15.45;3.15;;;;;;;15.26;70.37;99094.13;4965750;28;20177;-92
2022/12/11 18:03:07;;;;;;;13.98;3.00;;;;;;;15.02;70.77;99071.56;4979745;28;20042;-91
2022/12/11 18:06:02;;;;;;;13.13;2.97;;;;;;;15.09;70.78;99091.22;4957354;28;20050;-91
2022/12/11 18:08:37;;;;;;;17.30;3.50;;;;;;;15.14;70.74;99099.50;4995504;28;20058;-89
2022/12/11 18:11:14;;;;;;;17.80;4.20;;;;;;;15.25;70.79;99098.72;4963689;28;20050;-90
2022/12/11 18:13:45;;;;;;;16.83;3.90;;;;;;;15.30;70.49;99090.72;4937530;28;20050;-91
2022/12/11 19:08:11;;;;;;;20.45;3.67;;;;;;;15.61;69.67;99105.06;5017015;28;20038;-91
2022/12/11 19:10:45;;;;;;;16.80;3.13;;;;;;;15.58;69.71;99102.81;4997379;28;20074;-91
2022/12/11 19:13:42;;;;;;;16.83;3.00;;;;;;;15.48;70.18;99113.41;4984038;28;20046;-89
2022/12/11 19:16:22;;;;;;;16.73;3.45;;;;;;;15.48;70.35;99113.41;4998133;28;20082;-88
2022/12/11 20:11:07;;;;;;;6.40;4.63;;;;;;;9.79;83.23;99228.91;3946289;22;20054;-93
2022/12/11 20:13:38;;;;;;;7.13;4.75;;;;;;;9.67;83.78;99236.63;5013089;28;20081;-87
2022/12/11 20:18:38;;;;;;;9.00;4.40;;;;;;;9.27;84.92;99214.72;5048764;28;20098;-89
2022/12/11 20:21:20;;;;;;;6.63;4.20;;;;;;;9.33;84.86;99242.63;5027563;28;20092;-89
2022/12/11 20:23:48;;;;;;;6.13;4.50;;;;;;;9.17;85.33;99216.00;5019958;28;20192;-88
2022/12/11 20:26:22;;;;;;;6.50;4.57;;;;;;;9.22;85.67;99245.75;4983845;28;20049;-87
2022/12/11 20:28:54;;;;;;;8.77;4.60;;;;;;;9.36;85.83;99276.28;5018843;28;20029;-88
2022/12/11 20:31:24;;;;;;;6.03;4.10;;;;;;;9.15;85.63;99245.66;5042286;28;20041;-89
2022/12/11 20:33:51;;;;;;;6.32;4.25;;;;;;;9.24;84.70;99257.97;5004957;28;20045;-88
2022/12/11 20:36:20;;;;;;;7.47;4.05;;;;;;;9.19;84.54;99243.47;5003375;28;20079;-86
2022/12/11 20:38:58;;;;;;;7.32;4.53;;;;;;;8.98;84.15;99226.28;5011964;28;20219;-89
2022/12/11 20:41:29;;;;;;;4.53;2.85;;;;;;;9.01;82.72;99255.41;5051160;28;20051;-87
2022/12/11 20:43:58;;;;;;;5.55;2.80;;;;;;;8.88;82.79;99263.25;5029350;28;20045;-89
